Time;durP1;ratioP1;P1;durP2;ratioP2;P2;SDS_P1;SDS_P2;PMS_P1;PMS_P2;Temp;Humidity;BMP_temperature;BMP_pressure;BME280_temperature;BME280_humidity;BME280_pressure;Samples;Min_cycle;Max_cycle;Signal;HPM_P1;HPM_P2
2022/10/20 00:00:37;;;;;;;15.70;5.35;;;;;;;;;;4951587;28;20055;-73
2022/10/20 00:03:05;;;;;;;11.13;4.57;;;;;;;;;;4964586;28;20055;-72
2022/10/20 00:05:32;;;;;;;18.20;5.05;;;;;;;;;;4965378;28;20055;-72
2022/10/20 00:07:59;;;;;;;9.52;4.68;;;;;;;;;;4950062;28;20533;-72
2022/10/20 00:10:28;;;;;;;13.02;5.05;;;;;;;;;;4966289;28;20073;-72
2022/10/20 00:12:55;;;;;;;9.38;4.65;;;;;;;;;;4950252;28;20454;-72
2022/10/20 00:15:22;;;;;;;13.25;4.57;;;;;;;;;;4965644;28;20051;-72
2022/10/20 00:17:49;;;;;;;8.90;4.45;;;;;;;;;;4949669;28;20066;-72
2022/10/20 00:20:17;;;;;;;10.55;4.90;;;;;;;;;;4935335;28;21359;-72
2022/10/20 00:22:44;;;;;;;12.20;4.88;;;;;;;;;;4962027;28;20070;-72
2022/10/20 00:25:11;;;;;;;14.68;5.40;;;;;;;;;;4967409;28;20055;-72
2022/10/20 00:27:40;;;;;;;14.13;4.97;;;;;;;;;;4963687;28;20042;-73
2022/10/20 00:30:08;;;;;;;10.75;5.22;;;;;;;;;;4965976;28;20054;-72
2022/10/20 00:32:35;;;;;;;12.05;5.00;;;;;;;;;;4950675;28;20046;-73
2022/10/20 00:35:02;;;;;;;11.18;5.20;;;;;;;;;;4962126;28;20537;-72
2022/10/20 00:37:29;;;;;;;12.40;5.30;;;;;;;;;;4946990;28;20070;-72
2022/10/20 00:39:56;;;;;;;12.85;5.43;;;;;;;;;;4966696;28;20062;-72
2022/10/20 00:42:24;;;;;;;12.98;5.65;;;;;;;;;;4968121;28;20513;-73
2022/10/20 00:44:54;;;;;;;9.10;4.78;;;;;;;;;;4952990;28;20051;-72
2022/10/20 00:47:26;;;;;;;10.98;5.50;;;;;;;;;;4966956;28;20062;-72
2022/10/20 00:49:54;;;;;;;13.52;5.45;;;;;;;;;;4946862;28;20051;-72
2022/10/20 00:52:22;;;;;;;11.77;5.07;;;;;;;;;;4968545;28;20513;-72
2022/10/20 00:54:50;;;;;;;12.23;6.10;;;;;;;;;;4965241;28;20051;-72
2022/10/20 00:57:17;;;;;;;11.65;5.50;;;;;;;;;;4969115;28;20532;-72
2022/10/20 00:59:44;;;;;;;16.13;5.55;;;;;;;;;;4945597;28;20055;-72
2022/10/20 01:04:49;;;;;;;12.00;5.47;;;;;;;;;;5054418;23;20528;-67
2022/10/20 01:07:16;;;;;;;10.27;6.22;;;;;;;;;;4962627;28;20559;-67
2022/10/20 01:09:44;;;;;;;16.20;5.22;;;;;;;;;;4946735;28;20042;-67
2022/10/20 01:12:18;;;;;;;12.57;5.43;;;;;;;;;;4963839;28;20171;-68
2022/10/20 01:14:51;;;;;;;11.38;5.20;;;;;;;;;;4965264;28;20039;-68
2022/10/20 01:17:22;;;;;;;13.70;5.30;;;;;;;;;;4965776;28;20057;-68
2022/10/20 01:20:08;;;;;;;11.90;5.18;;;;;;;;;;4965996;28;20051;-68
2022/10/20 01:22:43;;;;;;;15.85;5.43;;;;;;;;;;4967079;28;20066;-68
2022/10/20 01:25:18;;;;;;;15.10;5.35;;;;;;;;;;4959777;28;20106;-68
2022/10/20 01:27:47;;;;;;;13.40;5.97;;;;;;;;;;4961053;28;20051;-68
2022/10/20 01:30:15;;;;;;;11.82;5.05;;;;;;;;;;4943776;28;20051;-68
2022/10/20 01:32:54;;;;;;;12.40;5.68;;;;;;;;;;4967453;28;20059;-68
2022/10/20 01:35:24;;;;;;;12.10;5.68;;;;;;;;;;4963670;28;20062;-68
2022/10/20 01:37:53;;;;;;;11.45;5.07;;;;;;;;;;4966829;28;20102;-68
2022/10/20 01:40:24;;;;;;;14.02;5.35;;;;;;;;;;4966543;28;20046;-68
2022/10/20 01:42:54;;;;;;;15.35;5.05;;;;;;;;;;4966532;28;20482;-68
2022/10/20 01:45:22;;;;;;;13.35;5.43;;;;;;;;;;4966578;28;20132;-68
2022/10/20 01:47:50;;;;;;;13.15;5.22;;;;;;;;;;4960268;28;20050;-68
2022/10/20 01:50:19;;;;;;;10.65;5.07;;;;;;;;;;4964569;28;20134;-68
2022/10/20 01:52:46;;;;;;;13.93;5.72;;;;;;;;;;4956602;28;20090;-68
2022/10/20 01:55:14;;;;;;;17.80;5.65;;;;;;;;;;4964164;28;20050;-68
2022/10/20 01:57:46;;;;;;;10.43;5.28;;;;;;;;;;4966839;28;20054;-68
2022/10/20 02:00:16;;;;;;;10.60;5.03;;;;;;;;;;4964765;28;20429;-69
2022/10/20 02:02:54;;;;;;;10.05;5.00;;;;;;;;;;4965022;28;20065;-68
2022/10/20 02:05:29;;;;;;;12.48;5.70;;;;;;;;;;4941519;29;20054;-68
2022/10/20 02:08:01;;;;;;;17.10;5.68;;;;;;;;;;4923261;29;20056;-68
2022/10/20 02:10:30;;;;;;;15.77;5.30;;;;;;;;;;4941568;29;21292;-69
2022/10/20 02:12:59;;;;;;;12.90;5.80;;;;;;;;;;4942048;29;20536;-68
2022/10/20 02:15:28;;;;;;;13.45;5.15;;;;;;;;;;4945124;29;20059;-68
2022/10/20 02:17:58;;;;;;;9.88;5.15;;;;;;;;;;4947438;29;20051;-69
2022/10/20 02:20:25;;;;;;;9.02;5.28;;;;;;;;;;4943330;29;20047;-68
2022/10/20 02:22:53;;;;;;;16.58;5.45;;;;;;;;;;4944548;29;20047;-69
2022/10/20 02:25:20;;;;;;;13.45;5.68;;;;;;;;;;4925456;29;20047;-68
2022/10/20 02:27:48;;;;;;;11.77;5.88;;;;;;;;;;4921676;29;20063;-68
2022/10/20 02:30:16;;;;;;;11.40;5.25;;;;;;;;;;4946429;29;20047;-69
2022/10/20 02:32:48;;;;;;;12.00;5.70;;;;;;;;;;4942613;29;20058;-68
2022/10/20 02:35:17;;;;;;;10.75;5.68;;;;;;;;;;4945462;29;20053;-69
2022/10/20 02:37:44;;;;;;;12.18;5.50;;;;;;;;;;4946435;29;20051;-68
2022/10/20 02:40:12;;;;;;;12.77;5.25;;;;;;;;;;4945273;29;20505;-68
2022/10/20 02:42:42;;;;;;;12.85;5.90;;;;;;;;;;4924496;29;20119;-68
2022/10/20 02:45:09;;;;;;;14.85;5.90;;;;;;;;;;4943413;29;20493;-68
2022/10/20 02:47:37;;;;;;;9.32;5.13;;;;;;;;;;4940175;29;20058;-68
2022/10/20 02:50:06;;;;;;;28.25;6.18;;;;;;;;;;4940246;29;20486;-68
2022/10/20 02:52:33;;;;;;;14.13;5.72;;;;;;;;;;4942279;29;20055;-68
2022/10/20 02:55:00;;;;;;;10.02;6.07;;;;;;;;;;4938406;29;20067;-69
2022/10/20 02:57:27;;;;;;;12.85;5.57;;;;;;;;;;4942339;29;20098;-67
2022/10/20 02:59:55;;;;;;;11.95;5.68;;;;;;;;;;4927125;29;20066;-67
2022/10/20 03:02:22;;;;;;;8.73;5.60;;;;;;;;;;4940874;29;20059;-68
2022/10/20 03:04:49;;;;;;;11.07;5.53;;;;;;;;;;4923098;29;20055;-69
2022/10/20 03:07:18;;;;;;;17.38;6.38;;;;;;;;;;4941081;29;20054;-66
2022/10/20 03:09:45;;;;;;;13.75;5.60;;;;;;;;;;4937791;29;20088;-67
2022/10/20 03:12:12;;;;;;;12.02;5.53;;;;;;;;;;4942131;29;20136;-67
2022/10/20 03:14:41;;;;;;;14.82;5.50;;;;;;;;;;4944885;29;21551;-69
2022/10/20 03:17:08;;;;;;;12.30;5.68;;;;;;;;;;4945278;29;20051;-70
2022/10/20 03:19:36;;;;;;;16.10;6.07;;;;;;;;;;4944788;29;20054;-70
2022/10/20 03:22:03;;;;;;;11.45;5.68;;;;;;;;;;4940610;29;20054;-68
2022/10/20 03:24:31;;;;;;;11.50;5.85;;;;;;;;;;4942808;29;20051;-69
2022/10/20 03:26:59;;;;;;;11.95;5.10;;;;;;;;;;4939775;29;20595;-68
2022/10/20 03:29:26;;;;;;;26.48;6.30;;;;;;;;;;4944016;29;20047;-69
2022/10/20 03:31:53;;;;;;;9.65;5.55;;;;;;;;;;4946155;29;20059;-68
2022/10/20 03:34:20;;;;;;;15.77;5.35;;;;;;;;;;4941655;29;20055;-68
2022/10/20 03:36:47;;;;;;;14.77;5.93;;;;;;;;;;4941483;29;20055;-69
2022/10/20 03:39:15;;;;;;;10.65;5.80;;;;;;;;;;4937551;29;20043;-68
2022/10/20 03:41:43;;;;;;;9.52;5.75;;;;;;;;;;4940221;29;20055;-69
2022/10/20 03:44:10;;;;;;;14.65;5.32;;;;;;;;;;4941089;29;20449;-68
2022/10/20 03:46:38;;;;;;;10.40;5.93;;;;;;;;;;4945664;28;20055;-68
2022/10/20 03:49:05;;;;;;;10.98;5.65;;;;;;;;;;4941329;29;20414;-68
2022/10/20 03:51:32;;;;;;;11.73;5.70;;;;;;;;;;4938929;29;20425;-68
2022/10/20 03:53:59;;;;;;;18.70;6.10;;;;;;;;;;4944069;29;20060;-68
2022/10/20 03:56:27;;;;;;;12.10;5.68;;;;;;;;;;4927542;29;20462;-69
2022/10/20 03:58:55;;;;;;;13.55;5.25;;;;;;;;;;4945845;29;20055;-69
2022/10/20 04:01:27;;;;;;;11.63;5.78;;;;;;;;;;4940336;29;20052;-68
2022/10/20 04:03:54;;;;;;;9.35;5.90;;;;;;;;;;4923635;29;20055;-68
2022/10/20 04:06:22;;;;;;;13.85;5.95;;;;;;;;;;4930305;29;20063;-69
2022/10/20 04:08:49;;;;;;;9.60;5.85;;;;;;;;;;4946144;29;20047;-69
2022/10/20 04:11:16;;;;;;;10.88;5.53;;;;;;;;;;4946241;29;20051;-68
2022/10/20 04:13:43;;;;;;;11.38;6.15;;;;;;;;;;4948000;29;20051;-68
2022/10/20 04:16:12;;;;;;;11.07;6.25;;;;;;;;;;4944017;29;20054;-68
2022/10/20 04:18:39;;;;;;;13.68;5.65;;;;;;;;;;4945701;29;20087;-69
2022/10/20 04:21:07;;;;;;;12.73;6.47;;;;;;;;;;4947348;29;20687;-68
2022/10/20 04:23:34;;;;;;;30.00;7.82;;;;;;;;;;4949259;29;20098;-68
2022/10/20 04:26:07;;;;;;;12.05;5.95;;;;;;;;;;4942396;29;20855;-68
2022/10/20 04:28:34;;;;;;;10.50;6.18;;;;;;;;;;4944581;29;20114;-69
2022/10/20 04:31:02;;;;;;;13.45;6.20;;;;;;;;;;4946791;29;20047;-68
2022/10/20 04:33:30;;;;;;;13.60;6.38;;;;;;;;;;4945361;29;20075;-68
2022/10/20 04:35:58;;;;;;;15.85;7.53;;;;;;;;;;4947983;29;20091;-68
2022/10/20 04:38:25;;;;;;;15.77;7.60;;;;;;;;;;4948174;29;20059;-68
2022/10/20 04:40:56;;;;;;;16.13;8.35;;;;;;;;;;4946034;29;20430;-69
2022/10/20 04:43:23;;;;;;;17.35;6.05;;;;;;;;;;4945005;29;20051;-68
2022/10/20 04:45:52;;;;;;;10.68;6.47;;;;;;;;;;4948118;29;20050;-69
2022/10/20 04:48:20;;;;;;;17.50;7.05;;;;;;;;;;4938287;29;20055;-68
2022/10/20 04:50:48;;;;;;;11.48;8.27;;;;;;;;;;4948340;29;20048;-68
2022/10/20 04:53:15;;;;;;;18.98;7.78;;;;;;;;;;4926038;29;20067;-68
2022/10/20 04:55:43;;;;;;;10.70;6.47;;;;;;;;;;4947121;29;20094;-69
2022/10/20 04:58:10;;;;;;;13.57;6.63;;;;;;;;;;4943653;29;20051;-69
2022/10/20 05:00:38;;;;;;;14.88;7.30;;;;;;;;;;4943055;29;20047;-69
2022/10/20 05:03:05;;;;;;;14.93;7.72;;;;;;;;;;4944122;28;20055;-69
2022/10/20 05:05:32;;;;;;;13.23;7.25;;;;;;;;;;4945149;29;20043;-69
2022/10/20 05:08:01;;;;;;;15.88;7.68;;;;;;;;;;4947482;29;20485;-68
2022/10/20 05:10:28;;;;;;;13.32;7.13;;;;;;;;;;4947854;29;20060;-69
2022/10/20 05:12:55;;;;;;;14.68;7.72;;;;;;;;;;4927587;29;20055;-68
2022/10/20 05:15:22;;;;;;;16.33;8.38;;;;;;;;;;4946846;29;20051;-68
2022/10/20 05:17:50;;;;;;;18.75;7.15;;;;;;;;;;4945403;28;20063;-68
2022/10/20 05:20:17;;;;;;;12.82;7.88;;;;;;;;;;4943805;28;20387;-69
2022/10/20 05:22:44;;;;;;;13.15;8.38;;;;;;;;;;4924959;29;20600;-68
2022/10/20 05:25:13;;;;;;;17.45;8.52;;;;;;;;;;4948109;29;20054;-68
2022/10/20 05:27:40;;;;;;;13.10;8.23;;;;;;;;;;4947569;29;20062;-68
2022/10/20 05:30:07;;;;;;;18.45;8.65;;;;;;;;;;4920708;29;20126;-68
2022/10/20 05:32:35;;;;;;;11.35;7.97;;;;;;;;;;4930521;29;20055;-68
2022/10/20 05:35:02;;;;;;;15.88;8.15;;;;;;;;;;4945773;29;20079;-68
2022/10/20 05:37:29;;;;;;;14.70;8.50;;;;;;;;;;4946610;29;20055;-68
2022/10/20 05:39:58;;;;;;;15.00;9.10;;;;;;;;;;4947345;29;20494;-68
2022/10/20 05:42:27;;;;;;;13.13;8.88;;;;;;;;;;4945720;29;20401;-68
2022/10/20 05:44:55;;;;;;;18.75;9.48;;;;;;;;;;4944377;29;20065;-69
2022/10/20 05:47:22;;;;;;;16.92;8.88;;;;;;;;;;4946227;29;20055;-68
2022/10/20 05:49:49;;;;;;;20.55;9.55;;;;;;;;;;4944235;29;20612;-68
2022/10/20 05:52:16;;;;;;;16.25;9.75;;;;;;;;;;4947240;29;20047;-68
2022/10/20 05:54:43;;;;;;;17.85;9.32;;;;;;;;;;4947630;29;20043;-69
2022/10/20 05:57:11;;;;;;;14.55;8.60;;;;;;;;;;4944452;29;20055;-68
2022/10/20 05:59:39;;;;;;;14.73;8.80;;;;;;;;;;4947688;29;20051;-68
2022/10/20 06:02:07;;;;;;;16.05;9.40;;;;;;;;;;4946903;29;20126;-68
2022/10/20 06:04:34;;;;;;;22.35;9.77;;;;;;;;;;4943437;29;20062;-69
2022/10/20 06:07:01;;;;;;;18.17;9.55;;;;;;;;;;4945360;29;20051;-68
2022/10/20 06:09:29;;;;;;;16.48;9.27;;;;;;;;;;4947816;29;20051;-69
2022/10/20 06:11:56;;;;;;;16.92;9.48;;;;;;;;;;4944687;29;20051;-68
2022/10/20 06:14:24;;;;;;;14.52;9.68;;;;;;;;;;4940041;29;20056;-68
2022/10/20 06:16:53;;;;;;;11.30;8.82;;;;;;;;;;4944285;29;20414;-68
2022/10/20 06:19:20;;;;;;;13.38;9.30;;;;;;;;;;4946526;29;20078;-68
2022/10/20 06:21:48;;;;;;;18.55;9.95;;;;;;;;;;4946704;29;20053;-68
2022/10/20 06:24:16;;;;;;;15.77;10.00;;;;;;;;;;4943655;29;20047;-68
2022/10/20 06:26:43;;;;;;;15.18;9.63;;;;;;;;;;4937119;29;20114;-68
2022/10/20 06:29:11;;;;;;;18.27;10.25;;;;;;;;;;4945236;28;20059;-69
2022/10/20 06:31:39;;;;;;;16.45;10.23;;;;;;;;;;4943807;29;20047;-69
2022/10/20 06:34:08;;;;;;;17.52;10.77;;;;;;;;;;4943985;29;20429;-68
2022/10/20 06:36:36;;;;;;;16.83;10.43;;;;;;;;;;4937808;29;20059;-68
2022/10/20 06:39:04;;;;;;;18.85;10.77;;;;;;;;;;4945654;29;20058;-68
2022/10/20 06:41:31;;;;;;;17.58;10.43;;;;;;;;;;4947432;29;20055;-68
2022/10/20 06:43:59;;;;;;;18.52;11.75;;;;;;;;;;4945769;29;20098;-68
2022/10/20 06:46:27;;;;;;;17.05;11.05;;;;;;;;;;4927143;29;20079;-68
2022/10/20 06:48:54;;;;;;;19.02;10.82;;;;;;;;;;4945208;29;20051;-68
2022/10/20 06:51:23;;;;;;;18.35;12.73;;;;;;;;;;4944034;29;20055;-68
2022/10/20 06:53:50;;;;;;;20.23;11.13;;;;;;;;;;4946231;29;20543;-68
2022/10/20 06:56:19;;;;;;;17.92;11.52;;;;;;;;;;4941194;29;20054;-68
2022/10/20 06:58:47;;;;;;;19.48;11.98;;;;;;;;;;4944933;29;20059;-68
2022/10/20 07:01:15;;;;;;;19.80;11.70;;;;;;;;;;4935923;29;20565;-68
2022/10/20 07:03:43;;;;;;;17.50;11.40;;;;;;;;;;4945179;28;20063;-68
2022/10/20 07:06:13;;;;;;;18.73;11.50;;;;;;;;;;4927758;29;20067;-68
2022/10/20 07:08:42;;;;;;;15.35;11.98;;;;;;;;;;4944324;29;20086;-68
2022/10/20 07:11:11;;;;;;;20.15;12.00;;;;;;;;;;4945263;29;20114;-68
2022/10/20 07:13:38;;;;;;;22.10;12.60;;;;;;;;;;4940456;29;20055;-68
2022/10/20 07:16:07;;;;;;;21.00;12.20;;;;;;;;;;4938111;29;20052;-68
2022/10/20 07:18:34;;;;;;;18.35;12.27;;;;;;;;;;4940272;29;20066;-68
2022/10/20 07:21:02;;;;;;;19.67;12.43;;;;;;;;;;4946086;29;20059;-69
2022/10/20 07:23:30;;;;;;;19.02;12.20;;;;;;;;;;4944779;29;20105;-68
2022/10/20 07:26:02;;;;;;;19.23;11.88;;;;;;;;;;4941327;29;20054;-68
2022/10/20 07:28:29;;;;;;;21.50;12.15;;;;;;;;;;4937128;29;20059;-68
2022/10/20 07:30:57;;;;;;;22.95;11.65;;;;;;;;;;4922388;29;20055;-68
2022/10/20 07:33:25;;;;;;;15.25;12.23;;;;;;;;;;4944092;29;20051;-68
2022/10/20 07:35:52;;;;;;;18.02;11.93;;;;;;;;;;4940441;29;20498;-68
2022/10/20 07:38:19;;;;;;;18.73;12.27;;;;;;;;;;4943585;29;20051;-68
2022/10/20 07:40:46;;;;;;;22.85;12.70;;;;;;;;;;4946304;28;20102;-69
2022/10/20 07:43:15;;;;;;;21.25;13.13;;;;;;;;;;4945352;29;20062;-68
2022/10/20 07:45:42;;;;;;;25.20;14.15;;;;;;;;;;4949973;29;20055;-69
2022/10/20 07:48:09;;;;;;;17.30;12.00;;;;;;;;;;4948582;29;20913;-68
2022/10/20 07:50:37;;;;;;;20.17;12.30;;;;;;;;;;4946193;29;20055;-68
2022/10/20 07:53:05;;;;;;;20.63;14.07;;;;;;;;;;4949872;29;20051;-69
2022/10/20 07:55:33;;;;;;;17.05;11.55;;;;;;;;;;4949088;29;20113;-68
2022/10/20 07:58:00;;;;;;;24.35;14.45;;;;;;;;;;4932261;29;20470;-68
2022/10/20 08:00:29;;;;;;;18.98;12.00;;;;;;;;;;4931603;29;20063;-69
2022/10/20 08:02:56;;;;;;;16.20;12.00;;;;;;;;;;4945053;28;20054;-68
2022/10/20 08:05:23;;;;;;;18.15;12.70;;;;;;;;;;4947492;29;20510;-68
2022/10/20 08:07:51;;;;;;;21.33;11.98;;;;;;;;;;4948084;29;20058;-69
2022/10/20 08:10:18;;;;;;;16.58;11.77;;;;;;;;;;4947621;29;20107;-68
2022/10/20 08:12:45;;;;;;;18.88;11.18;;;;;;;;;;4948588;29;20055;-69
2022/10/20 08:15:13;;;;;;;15.68;11.65;;;;;;;;;;4946117;29;20074;-69
2022/10/20 08:17:41;;;;;;;24.02;12.65;;;;;;;;;;4946074;29;20043;-68
2022/10/20 08:20:09;;;;;;;19.98;11.88;;;;;;;;;;4948457;29;20556;-68
2022/10/20 08:22:36;;;;;;;22.05;12.95;;;;;;;;;;4948554;29;20043;-68
2022/10/20 08:25:03;;;;;;;16.75;11.30;;;;;;;;;;4942771;29;20541;-68
2022/10/20 08:27:31;;;;;;;16.75;11.32;;;;;;;;;;4949126;29;20114;-68
2022/10/20 08:29:58;;;;;;;16.13;11.73;;;;;;;;;;4945369;29;20047;-69
2022/10/20 08:32:25;;;;;;;18.80;11.52;;;;;;;;;;4944702;29;20059;-69
2022/10/20 08:34:54;;;;;;;15.80;11.35;;;;;;;;;;4931959;29;20441;-69
2022/10/20 08:37:21;;;;;;;15.63;10.43;;;;;;;;;;4948054;29;20059;-69
2022/10/20 08:39:48;;;;;;;17.20;11.10;;;;;;;;;;4949279;29;20059;-69
2022/10/20 08:42:15;;;;;;;14.80;10.25;;;;;;;;;;4948988;29;20051;-69
2022/10/20 08:44:45;;;;;;;18.17;10.82;;;;;;;;;;4948086;29;20541;-69
2022/10/20 08:47:17;;;;;;;16.70;10.85;;;;;;;;;;4948431;29;20059;-69
2022/10/20 08:49:45;;;;;;;13.00;10.70;;;;;;;;;;4949095;29;20057;-69
2022/10/20 08:52:14;;;;;;;17.58;11.13;;;;;;;;;;4946078;28;20039;-69
2022/10/20 08:54:42;;;;;;;16.27;9.95;;;;;;;;;;4946552;29;20838;-69
2022/10/20 08:57:17;;;;;;;18.58;10.32;;;;;;;;;;4948773;29;20126;-69
2022/10/20 08:59:44;;;;;;;13.95;10.43;;;;;;;;;;4946381;29;20055;-69
2022/10/20 09:02:15;;;;;;;15.23;10.35;;;;;;;;;;4947274;29;20051;-69
2022/10/20 09:04:44;;;;;;;16.55;9.95;;;;;;;;;;4945080;28;20067;-69
2022/10/20 09:07:17;;;;;;;15.77;9.45;;;;;;;;;;4928926;29;20051;-69
2022/10/20 09:09:44;;;;;;;17.10;9.60;;;;;;;;;;4946747;29;20051;-69
2022/10/20 09:12:13;;;;;;;14.70;9.15;;;;;;;;;;4948277;29;20058;-69
2022/10/20 09:14:41;;;;;;;15.95;9.98;;;;;;;;;;4943500;29;20051;-69
2022/10/20 09:17:12;;;;;;;13.43;9.27;;;;;;;;;;4930841;29;20047;-69
2022/10/20 09:19:40;;;;;;;16.02;9.43;;;;;;;;;;4946268;29;20509;-69
2022/10/20 09:22:08;;;;;;;15.75;9.82;;;;;;;;;;4944252;29;20050;-69
2022/10/20 09:24:37;;;;;;;17.23;9.63;;;;;;;;;;4948433;29;20055;-69
2022/10/20 09:27:18;;;;;;;14.00;9.60;;;;;;;;;;4945745;29;20069;-69
2022/10/20 09:29:45;;;;;;;14.45;9.00;;;;;;;;;;4931158;29;20630;-69
2022/10/20 09:32:17;;;;;;;11.88;8.88;;;;;;;;;;4947865;29;20051;-69
2022/10/20 09:34:44;;;;;;;11.52;8.50;;;;;;;;;;4943134;29;20055;-69
2022/10/20 09:37:13;;;;;;;12.50;8.45;;;;;;;;;;4942188;29;20098;-69
2022/10/20 09:39:43;;;;;;;13.27;9.63;;;;;;;;;;4932125;29;20679;-69
2022/10/20 09:42:14;;;;;;;14.52;9.07;;;;;;;;;;4947641;29;20074;-69
2022/10/20 09:44:47;;;;;;;14.70;8.55;;;;;;;;;;4944030;29;20103;-69
2022/10/20 09:47:16;;;;;;;12.38;8.73;;;;;;;;;;4942888;29;20146;-69
2022/10/20 09:49:45;;;;;;;14.88;9.15;;;;;;;;;;4947364;29;20051;-69
2022/10/20 09:52:17;;;;;;;11.90;7.97;;;;;;;;;;4946949;29;20073;-69
2022/10/20 09:54:48;;;;;;;12.48;8.30;;;;;;;;;;4944836;29;20051;-69
2022/10/20 09:57:18;;;;;;;11.98;8.02;;;;;;;;;;4944125;29;20162;-69
2022/10/20 09:59:46;;;;;;;12.02;8.45;;;;;;;;;;4945215;29;20058;-69
2022/10/20 10:02:30;;;;;;;14.13;8.07;;;;;;;;;;4946329;28;20094;-69
2022/10/20 10:05:12;;;;;;;15.40;7.65;;;;;;;;;;4944457;29;20541;-69
2022/10/20 10:07:39;;;;;;;12.02;8.07;;;;;;;;;;4931162;29;20066;-69
2022/10/20 10:10:22;;;;;;;12.90;7.80;;;;;;;;;;4944232;29;20051;-69
2022/10/20 10:12:52;;;;;;;12.45;7.72;;;;;;;;;;4943594;29;20051;-69
2022/10/20 10:15:25;;;;;;;11.63;7.75;;;;;;;;;;4928684;29;20517;-69
2022/10/20 10:17:53;;;;;;;14.15;7.95;;;;;;;;;;4943678;29;20798;-69
2022/10/20 10:20:29;;;;;;;11.98;7.20;;;;;;;;;;4945999;29;20051;-69
2022/10/20 10:23:08;;;;;;;10.93;7.35;;;;;;;;;;4942831;29;20047;-69
2022/10/20 10:25:37;;;;;;;13.30;7.65;;;;;;;;;;4946710;29;20055;-69
2022/10/20 10:28:07;;;;;;;11.90;8.27;;;;;;;;;;4941830;29;20741;-69
2022/10/20 10:30:37;;;;;;;12.65;7.53;;;;;;;;;;4943610;29;20494;-69
2022/10/20 10:33:22;;;;;;;9.18;7.20;;;;;;;;;;4921634;29;20055;-69
2022/10/20 10:35:50;;;;;;;10.43;7.07;;;;;;;;;;4940339;29;21348;-69
2022/10/20 10:38:17;;;;;;;10.35;7.07;;;;;;;;;;4920667;29;20117;-69
2022/10/20 10:40:55;;;;;;;14.70;8.02;;;;;;;;;;4943664;29;20047;-69
2022/10/20 10:43:29;;;;;;;15.63;7.45;;;;;;;;;;4946436;29;20059;-69
2022/10/20 10:45:57;;;;;;;10.00;7.47;;;;;;;;;;4946055;29;20130;-69
2022/10/20 10:48:33;;;;;;;16.73;7.65;;;;;;;;;;4942208;29;20434;-69
2022/10/20 10:51:01;;;;;;;10.98;7.07;;;;;;;;;;4946414;29;20054;-69
2022/10/20 10:53:34;;;;;;;12.52;7.50;;;;;;;;;;4946413;29;20055;-69
2022/10/20 10:56:09;;;;;;;14.57;7.40;;;;;;;;;;4940868;29;20051;-69
2022/10/20 10:58:42;;;;;;;12.73;7.75;;;;;;;;;;4943600;29;20074;-69
2022/10/20 11:01:16;;;;;;;11.43;7.68;;;;;;;;;;4946250;29;20051;-69
2022/10/20 11:03:48;;;;;;;13.07;6.97;;;;;;;;;;4946085;28;20459;-69
2022/10/20 11:06:19;;;;;;;10.20;7.50;;;;;;;;;;4946122;29;20506;-69
2022/10/20 11:09:01;;;;;;;11.18;7.10;;;;;;;;;;4944415;29;20047;-68
2022/10/20 11:11:36;;;;;;;12.98;7.45;;;;;;;;;;4945835;29;20513;-68
2022/10/20 11:14:11;;;;;;;10.55;7.40;;;;;;;;;;4943616;28;20042;-68
2022/10/20 11:16:41;;;;;;;11.77;7.63;;;;;;;;;;4948544;29;20746;-68
2022/10/20 11:19:26;;;;;;;14.93;7.30;;;;;;;;;;4946762;29;20051;-68
2022/10/20 11:22:00;;;;;;;9.73;7.28;;;;;;;;;;4945557;29;20058;-68
2022/10/20 11:24:34;;;;;;;13.63;8.13;;;;;;;;;;4930453;29;20063;-68
2022/10/20 11:27:04;;;;;;;11.45;8.02;;;;;;;;;;4942252;29;20054;-68
2022/10/20 11:29:33;;;;;;;13.18;8.05;;;;;;;;;;4941909;29;20055;-68
2022/10/20 11:32:07;;;;;;;13.73;7.50;;;;;;;;;;4945221;29;20167;-68
2022/10/20 11:34:36;;;;;;;14.52;7.22;;;;;;;;;;4933591;29;20051;-69
2022/10/20 11:37:06;;;;;;;11.75;7.32;;;;;;;;;;4946352;29;20536;-69
2022/10/20 11:39:36;;;;;;;12.63;8.15;;;;;;;;;;4948310;29;20509;-69
2022/10/20 11:42:14;;;;;;;14.38;7.82;;;;;;;;;;4944608;29;20501;-68
2022/10/20 11:44:43;;;;;;;13.18;7.53;;;;;;;;;;4945307;29;20521;-69
2022/10/20 11:47:12;;;;;;;14.30;7.22;;;;;;;;;;4929254;29;20074;-69
2022/10/20 11:49:40;;;;;;;11.30;8.45;;;;;;;;;;4945740;29;20379;-68
2022/10/20 11:52:12;;;;;;;12.45;7.80;;;;;;;;;;4945490;29;20055;-69
2022/10/20 11:54:52;;;;;;;11.20;7.90;;;;;;;;;;4947549;29;20047;-69
2022/10/20 11:57:29;;;;;;;10.38;7.55;;;;;;;;;;4944500;29;20054;-69
2022/10/20 12:00:03;;;;;;;14.45;7.68;;;;;;;;;;4946675;29;20047;-68
2022/10/20 12:02:49;;;;;;;10.70;8.15;;;;;;;;;;4948730;29;20514;-69
2022/10/20 12:05:30;;;;;;;14.90;8.30;;;;;;;;;;4931494;29;20498;-68
2022/10/20 12:08:08;;;;;;;13.23;8.45;;;;;;;;;;4949048;29;20063;-69
2022/10/20 12:10:38;;;;;;;12.88;8.70;;;;;;;;;;4928200;29;20569;-68
2022/10/20 12:13:16;;;;;;;14.70;8.82;;;;;;;;;;4946430;29;20487;-69
2022/10/20 12:15:47;;;;;;;12.68;8.55;;;;;;;;;;4945514;29;20532;-68
2022/10/20 12:18:23;;;;;;;16.55;8.45;;;;;;;;;;4946363;29;20047;-68
2022/10/20 12:20:51;;;;;;;12.65;8.52;;;;;;;;;;4948667;29;20077;-68
2022/10/20 12:23:37;;;;;;;11.43;8.45;;;;;;;;;;4948868;29;20074;-69
2022/10/20 12:26:04;;;;;;;12.90;8.20;;;;;;;;;;4943786;28;20055;-69
2022/10/20 12:28:42;;;;;;;13.93;8.73;;;;;;;;;;4949336;29;20059;-68
2022/10/20 12:31:09;;;;;;;13.90;9.35;;;;;;;;;;4928949;29;20051;-68
2022/10/20 12:33:41;;;;;;;14.10;9.18;;;;;;;;;;4948326;29;20055;-68
2022/10/20 12:36:22;;;;;;;13.77;9.25;;;;;;;;;;4944222;29;20680;-68
2022/10/20 12:38:51;;;;;;;18.40;9.43;;;;;;;;;;4946485;29;20055;-68
2022/10/20 12:41:25;;;;;;;17.48;11.00;;;;;;;;;;4947846;29;20055;-68
2022/10/20 12:43:54;;;;;;;15.65;9.90;;;;;;;;;;4944630;29;20051;-68
2022/10/20 12:46:23;;;;;;;13.88;10.50;;;;;;;;;;4947635;29;20056;-68
2022/10/20 12:48:56;;;;;;;15.32;10.55;;;;;;;;;;4926672;29;20119;-68
2022/10/20 12:51:35;;;;;;;21.15;12.13;;;;;;;;;;4943032;29;20412;-68
2022/10/20 12:54:04;;;;;;;18.02;12.55;;;;;;;;;;4948240;29;20170;-68
2022/10/20 12:56:37;;;;;;;24.67;13.43;;;;;;;;;;4948138;29;20043;-68
2022/10/20 12:59:20;;;;;;;20.43;12.47;;;;;;;;;;4948973;29;20083;-68
2022/10/20 13:02:02;;;;;;;26.48;13.80;;;;;;;;;;4932108;29;20401;-68
2022/10/20 13:04:48;;;;;;;20.98;14.63;;;;;;;;;;4928145;29;20059;-69
2022/10/20 13:07:15;;;;;;;20.88;12.27;;;;;;;;;;4943372;29;20043;-68
2022/10/20 13:09:55;;;;;;;20.13;13.45;;;;;;;;;;4933398;29;20051;-68
2022/10/20 13:12:27;;;;;;;23.15;15.45;;;;;;;;;;4947280;29;20574;-68
2022/10/20 13:14:59;;;;;;;19.10;13.23;;;;;;;;;;4943934;29;20055;-68
2022/10/20 13:17:39;;;;;;;27.52;16.23;;;;;;;;;;4942978;29;20055;-68
2022/10/20 13:20:16;;;;;;;19.70;14.93;;;;;;;;;;4948022;29;20064;-68
2022/10/20 13:22:45;;;;;;;21.67;14.43;;;;;;;;;;4945428;29;20062;-68
2022/10/20 13:25:30;;;;;;;20.35;15.55;;;;;;;;;;4945962;29;20057;-68
2022/10/20 13:28:21;;;;;;;20.02;13.85;;;;;;;;;;4947554;29;20059;-68
2022/10/20 13:31:09;;;;;;;27.40;16.30;;;;;;;;;;4920677;29;20051;-68
2022/10/20 13:33:43;;;;;;;30.38;16.42;;;;;;;;;;4919801;29;20062;-68
2022/10/20 13:36:10;;;;;;;;;;;;;;;;;;4946585;29;20043;-68
2022/10/20 13:38:40;;;;;;;40.53;19.20;;;;;;;;;;4927373;29;19927;-68
2022/10/20 13:41:11;;;;;;;28.98;15.25;;;;;;;;;;4944456;29;20055;-68
2022/10/20 13:43:42;;;;;;;22.08;16.02;;;;;;;;;;4930118;29;20066;-68
2022/10/20 13:46:20;;;;;;;33.03;18.23;;;;;;;;;;4947406;29;20179;-68
2022/10/20 13:49:00;;;;;;;28.08;17.45;;;;;;;;;;4928388;29;20062;-68
2022/10/20 13:51:29;;;;;;;33.80;18.70;;;;;;;;;;4947045;29;20051;-68
2022/10/20 13:53:58;;;;;;;33.95;19.08;;;;;;;;;;4944232;29;20537;-68
2022/10/20 13:56:29;;;;;;;36.50;19.90;;;;;;;;;;4931447;29;20051;-68
2022/10/20 13:59:00;;;;;;;38.08;21.08;;;;;;;;;;4947003;29;20043;-68
2022/10/20 14:01:28;;;;;;;35.47;19.70;;;;;;;;;;4944494;29;20466;-68
2022/10/20 14:03:57;;;;;;;63.50;23.85;;;;;;;;;;4944517;28;20043;-68
2022/10/20 14:06:34;;;;;;;42.63;22.85;;;;;;;;;;4947451;29;20131;-69
2022/10/20 14:09:09;;;;;;;36.20;20.13;;;;;;;;;;4945071;29;20409;-68
2022/10/20 14:11:37;;;;;;;29.30;17.90;;;;;;;;;;4942287;29;20058;-67
2022/10/20 14:14:04;;;;;;;39.47;21.35;;;;;;;;;;4946842;29;20066;-67
2022/10/20 14:16:32;;;;;;;38.70;21.38;;;;;;;;;;4945256;29;20055;-67
2022/10/20 14:19:04;;;;;;;80.47;27.10;;;;;;;;;;4946313;29;20081;-68
2022/10/20 14:21:39;;;;;;;38.63;21.85;;;;;;;;;;4947176;29;20650;-68
2022/10/20 14:24:09;;;;;;;45.10;22.60;;;;;;;;;;4942600;29;20039;-67
2022/10/20 14:26:36;;;;;;;47.13;23.98;;;;;;;;;;4926596;29;20051;-68
2022/10/20 14:29:04;;;;;;;38.40;20.83;;;;;;;;;;4944430;29;20352;-68
2022/10/20 14:31:31;;;;;;;52.47;23.48;;;;;;;;;;4945163;29;20051;-67
2022/10/20 14:33:58;;;;;;;54.97;24.25;;;;;;;;;;4945429;29;20055;-68
2022/10/20 14:36:28;;;;;;;50.97;24.02;;;;;;;;;;4947034;29;20047;-67
2022/10/20 14:38:56;;;;;;;41.97;23.42;;;;;;;;;;4945911;29;20055;-68
2022/10/20 14:41:27;;;;;;;38.30;21.70;;;;;;;;;;4945452;29;20457;-68
2022/10/20 14:43:56;;;;;;;41.33;21.42;;;;;;;;;;4943666;29;20058;-67